Terminal Aerodrome Forecast
Issued by NWS Atlanta, GA

Home | Current Version | Previous Version | Text Only | Print | Product List | Glossary On
Versions: 1 2 3 4 5 6 7 8 9 10 11 12 13 14 15 16 17 18 19 20 21 22 23 24 25 26 27 28 29 30 31 32 33 34 35 36 37
000
FTUS42 KFFC 232320
TAFATL
TAF
KATL 232320Z 2400/2506 35008KT P6SM FEW080
     FM240200 28003KT P6SM SKC
     FM240900 04003KT P6SM SKC
     FM241500 27005KT P6SM FEW050
     FM241800 27008KT P6SM SCT070
     FM250200 22003KT P6SM FEW150=

USA.gov is the U.S. government's official web portal to all federal, state and local government web resources and services.